sensor_id;sensor_type;location;lat;lon;timestamp;temperature;humidity
82506;SHT30;72144;51.444;10.560;2024-01-30T00:01:10;4.19;81.80
82506;SHT30;72144;51.444;10.560;2024-01-30T00:03:35;4.18;81.82
82506;SHT30;72144;51.444;10.560;2024-01-30T00:06:00;4.16;81.86
82506;SHT30;72144;51.444;10.560;2024-01-30T00:08:26;4.13;81.80
82506;SHT30;72144;51.444;10.560;2024-01-30T00:10:51;4.13;81.82
82506;SHT30;72144;51.444;10.560;2024-01-30T00:13:16;4.12;81.81
82506;SHT30;72144;51.444;10.560;2024-01-30T00:15:44;4.11;81.79
82506;SHT30;72144;51.444;10.560;2024-01-30T00:18:09;4.08;81.86
82506;SHT30;72144;51.444;10.560;2024-01-30T00:20:35;4.06;81.88
82506;SHT30;72144;51.444;10.560;2024-01-30T00:23:00;4.05;81.86
82506;SHT30;72144;51.444;10.560;2024-01-30T00:25:26;4.04;81.81
82506;SHT30;72144;51.444;10.560;2024-01-30T00:27:52;4.04;81.81
82506;SHT30;72144;51.444;10.560;2024-01-30T00:30:17;3.98;81.87
82506;SHT30;72144;51.444;10.560;2024-01-30T00:32:42;3.97;81.82
82506;SHT30;72144;51.444;10.560;2024-01-30T00:35:08;3.97;81.77
82506;SHT30;72144;51.444;10.560;2024-01-30T00:37:35;3.93;81.79
82506;SHT30;72144;51.444;10.560;2024-01-30T00:40:00;3.93;81.84
82506;SHT30;72144;51.444;10.560;2024-01-30T00:42:25;3.93;81.78
82506;SHT30;72144;51.444;10.560;2024-01-30T00:44:51;3.91;81.89
82506;SHT30;72144;51.444;10.560;2024-01-30T00:47:16;3.88;81.75
82506;SHT30;72144;51.444;10.560;2024-01-30T00:49:42;3.85;81.67
82506;SHT30;72144;51.444;10.560;2024-01-30T00:52:07;3.84;81.79
82506;SHT30;72144;51.444;10.560;2024-01-30T00:54:32;3.83;81.70
82506;SHT30;72144;51.444;10.560;2024-01-30T00:56:58;3.81;81.85
82506;SHT30;72144;51.444;10.560;2024-01-30T00:59:23;3.81;81.82
82506;SHT30;72144;51.444;10.560;2024-01-30T01:01:48;3.81;81.77
82506;SHT30;72144;51.444;10.560;2024-01-30T01:04:14;3.74;81.77
82506;SHT30;72144;51.444;10.560;2024-01-30T01:06:39;3.74;81.78
82506;SHT30;72144;51.444;10.560;2024-01-30T01:09:07;3.71;81.86
82506;SHT30;72144;51.444;10.560;2024-01-30T01:11:33;3.73;81.79
82506;SHT30;72144;51.444;10.560;2024-01-30T01:13:58;3.69;81.69
82506;SHT30;72144;51.444;10.560;2024-01-30T01:16:23;3.67;81.74
82506;SHT30;72144;51.444;10.560;2024-01-30T01:18:49;3.66;81.85
82506;SHT30;72144;51.444;10.560;2024-01-30T01:21:14;3.66;81.82
82506;SHT30;72144;51.444;10.560;2024-01-30T01:23:39;3.62;81.77
82506;SHT30;72144;51.444;10.560;2024-01-30T01:26:05;3.59;81.84
82506;SHT30;72144;51.444;10.560;2024-01-30T01:28:30;3.60;81.90
82506;SHT30;72144;51.444;10.560;2024-01-30T01:30:56;3.59;82.04
82506;SHT30;72144;51.444;10.560;2024-01-30T01:33:24;3.59;82.04
82506;SHT30;72144;51.444;10.560;2024-01-30T01:35:50;3.55;81.96
82506;SHT30;72144;51.444;10.560;2024-01-30T01:38:15;3.53;81.80
82506;SHT30;72144;51.444;10.560;2024-01-30T01:40:40;3.52;81.85
82506;SHT30;72144;51.444;10.560;2024-01-30T01:43:06;3.52;81.89
82506;SHT30;72144;51.444;10.560;2024-01-30T01:45:31;3.49;81.85
82506;SHT30;72144;51.444;10.560;2024-01-30T01:47:57;3.48;81.74
82506;SHT30;72144;51.444;10.560;2024-01-30T01:50:22;3.46;81.72
82506;SHT30;72144;51.444;10.560;2024-01-30T01:52:48;3.44;81.72
82506;SHT30;72144;51.444;10.560;2024-01-30T01:55:15;3.43;81.69
82506;SHT30;72144;51.444;10.560;2024-01-30T01:57:41;3.46;81.78
82506;SHT30;72144;51.444;10.560;2024-01-30T02:00:08;3.40;81.70
82506;SHT30;72144;51.444;10.560;2024-01-30T02:02:36;3.40;81.71
82506;SHT30;72144;51.444;10.560;2024-01-30T02:05:01;3.36;81.81
82506;SHT30;72144;51.444;10.560;2024-01-30T02:07:30;3.36;81.74
82506;SHT30;72144;51.444;10.560;2024-01-30T02:09:56;3.33;81.75
82506;SHT30;72144;51.444;10.560;2024-01-30T02:12:21;3.33;81.71
82506;SHT30;72144;51.444;10.560;2024-01-30T02:14:50;3.32;81.71
82506;SHT30;72144;51.444;10.560;2024-01-30T02:17:16;3.31;81.72
82506;SHT30;72144;51.444;10.560;2024-01-30T02:19:42;3.32;81.74
82506;SHT30;72144;51.444;10.560;2024-01-30T02:22:08;3.33;81.75
82506;SHT30;72144;51.444;10.560;2024-01-30T02:24:33;3.32;81.86
82506;SHT30;72144;51.444;10.560;2024-01-30T02:26:59;3.33;81.84
82506;SHT30;72144;51.444;10.560;2024-01-30T02:29:24;3.31;81.83
82506;SHT30;72144;51.444;10.560;2024-01-30T02:31:50;3.32;81.88
82506;SHT30;72144;51.444;10.560;2024-01-30T02:34:16;3.33;81.96
82506;SHT30;72144;51.444;10.560;2024-01-30T02:36:44;3.33;81.92
82506;SHT30;72144;51.444;10.560;2024-01-30T02:39:10;3.32;81.93
82506;SHT30;72144;51.444;10.560;2024-01-30T02:41:35;3.32;81.93
82506;SHT30;72144;51.444;10.560;2024-01-30T02:44:01;3.28;81.93
82506;SHT30;72144;51.444;10.560;2024-01-30T02:46:27;3.26;81.98
82506;SHT30;72144;51.444;10.560;2024-01-30T02:48:52;3.26;82.17
82506;SHT30;72144;51.444;10.560;2024-01-30T02:51:18;3.23;82.08
82506;SHT30;72144;51.444;10.560;2024-01-30T02:53:43;3.26;82.12
82506;SHT30;72144;51.444;10.560;2024-01-30T02:56:09;3.23;82.08
82506;SHT30;72144;51.444;10.560;2024-01-30T02:58:36;3.21;82.06
82506;SHT30;72144;51.444;10.560;2024-01-30T03:01:02;3.22;82.14
82506;SHT30;72144;51.444;10.560;2024-01-30T03:03:27;3.22;82.06
82506;SHT30;72144;51.444;10.560;2024-01-30T03:05:53;3.18;82.05
82506;SHT30;72144;51.444;10.560;2024-01-30T03:08:18;3.19;82.05
82506;SHT30;72144;51.444;10.560;2024-01-30T03:10:43;3.18;82.11
82506;SHT30;72144;51.444;10.560;2024-01-30T03:13:09;3.18;82.02
82506;SHT30;72144;51.444;10.560;2024-01-30T03:15:34;3.18;81.99
82506;SHT30;72144;51.444;10.560;2024-01-30T03:17:59;3.18;82.00
82506;SHT30;72144;51.444;10.560;2024-01-30T03:20:25;3.16;82.11
82506;SHT30;72144;51.444;10.560;2024-01-30T03:22:50;3.14;82.09
82506;SHT30;72144;51.444;10.560;2024-01-30T03:25:15;3.15;82.10
82506;SHT30;72144;51.444;10.560;2024-01-30T03:27:41;3.14;82.08
82506;SHT30;72144;51.444;10.560;2024-01-30T03:30:07;3.12;82.09
82506;SHT30;72144;51.444;10.560;2024-01-30T03:32:32;3.12;82.06
82506;SHT30;72144;51.444;10.560;2024-01-30T03:34:57;3.14;82.13
82506;SHT30;72144;51.444;10.560;2024-01-30T03:37:23;3.12;82.12
82506;SHT30;72144;51.444;10.560;2024-01-30T03:39:49;3.11;82.09
82506;SHT30;72144;51.444;10.560;2024-01-30T03:42:14;3.09;82.09
82506;SHT30;72144;51.444;10.560;2024-01-30T03:44:39;3.08;82.09
82506;SHT30;72144;51.444;10.560;2024-01-30T03:47:05;3.11;82.06
82506;SHT30;72144;51.444;10.560;2024-01-30T03:49:30;3.07;82.09
82506;SHT30;72144;51.444;10.560;2024-01-30T03:51:56;3.05;82.14
82506;SHT30;72144;51.444;10.560;2024-01-30T03:54:21;3.04;82.08
82506;SHT30;72144;51.444;10.560;2024-01-30T03:56:46;3.04;82.10
82506;SHT30;72144;51.444;10.560;2024-01-30T03:59:12;3.03;82.15
82506;SHT30;72144;51.444;10.560;2024-01-30T04:01:37;3.04;82.18
82506;SHT30;72144;51.444;10.560;2024-01-30T04:04:02;3.01;82.22
82506;SHT30;72144;51.444;10.560;2024-01-30T04:06:28;3.04;82.29
82506;SHT30;72144;51.444;10.560;2024-01-30T04:08:53;3.01;82.30
82506;SHT30;72144;51.444;10.560;2024-01-30T04:11:19;3.01;82.23
82506;SHT30;72144;51.444;10.560;2024-01-30T04:13:45;3.00;82.19
82506;SHT30;72144;51.444;10.560;2024-01-30T04:16:19;3.00;82.14
82506;SHT30;72144;51.444;10.560;2024-01-30T04:18:46;2.98;82.29
82506;SHT30;72144;51.444;10.560;2024-01-30T04:21:11;3.00;82.30
82506;SHT30;72144;51.444;10.560;2024-01-30T04:23:36;2.98;82.33
82506;SHT30;72144;51.444;10.560;2024-01-30T04:26:02;2.97;82.42
82506;SHT30;72144;51.444;10.560;2024-01-30T04:28:28;2.94;82.40
82506;SHT30;72144;51.444;10.560;2024-01-30T04:30:54;2.96;82.42
82506;SHT30;72144;51.444;10.560;2024-01-30T04:33:19;2.94;82.45
82506;SHT30;72144;51.444;10.560;2024-01-30T04:35:44;2.96;82.41
82506;SHT30;72144;51.444;10.560;2024-01-30T04:38:10;2.94;82.39
82506;SHT30;72144;51.444;10.560;2024-01-30T04:40:35;2.94;82.38
82506;SHT30;72144;51.444;10.560;2024-01-30T04:43:00;2.91;82.39
82506;SHT30;72144;51.444;10.560;2024-01-30T04:45:26;2.90;82.35
82506;SHT30;72144;51.444;10.560;2024-01-30T04:47:51;2.94;82.45
82506;SHT30;72144;51.444;10.560;2024-01-30T04:50:16;2.90;82.36
82506;SHT30;72144;51.444;10.560;2024-01-30T04:52:42;2.90;82.35
82506;SHT30;72144;51.444;10.560;2024-01-30T04:55:07;2.90;82.39
82506;SHT30;72144;51.444;10.560;2024-01-30T04:57:32;2.87;82.39
82506;SHT30;72144;51.444;10.560;2024-01-30T04:59:59;2.87;82.43
82506;SHT30;72144;51.444;10.560;2024-01-30T05:02:24;2.86;82.53
82506;SHT30;72144;51.444;10.560;2024-01-30T05:04:49;2.86;82.62
82506;SHT30;72144;51.444;10.560;2024-01-30T05:07:15;2.80;82.60
82506;SHT30;72144;51.444;10.560;2024-01-30T05:09:40;2.84;82.66
82506;SHT30;72144;51.444;10.560;2024-01-30T05:12:07;2.81;82.64
82506;SHT30;72144;51.444;10.560;2024-01-30T05:14:32;2.80;82.62
82506;SHT30;72144;51.444;10.560;2024-01-30T05:16:57;2.80;82.73
82506;SHT30;72144;51.444;10.560;2024-01-30T05:19:23;2.79;82.68
82506;SHT30;72144;51.444;10.560;2024-01-30T05:21:49;2.77;82.71
82506;SHT30;72144;51.444;10.560;2024-01-30T05:24:14;2.77;82.69
82506;SHT30;72144;51.444;10.560;2024-01-30T05:26:39;2.75;82.69
82506;SHT30;72144;51.444;10.560;2024-01-30T05:29:06;2.75;82.69
82506;SHT30;72144;51.444;10.560;2024-01-30T05:31:31;2.75;82.66
82506;SHT30;72144;51.444;10.560;2024-01-30T05:33:56;2.73;82.71
82506;SHT30;72144;51.444;10.560;2024-01-30T05:36:22;2.73;82.74
82506;SHT30;72144;51.444;10.560;2024-01-30T05:38:47;2.72;82.78
82506;SHT30;72144;51.444;10.560;2024-01-30T05:41:13;2.75;82.78
82506;SHT30;72144;51.444;10.560;2024-01-30T05:43:38;2.73;82.77
82506;SHT30;72144;51.444;10.560;2024-01-30T05:46:03;2.70;82.77
82506;SHT30;72144;51.444;10.560;2024-01-30T05:48:29;2.72;82.76
82506;SHT30;72144;51.444;10.560;2024-01-30T05:50:54;2.72;82.76
82506;SHT30;72144;51.444;10.560;2024-01-30T05:53:20;2.69;82.72
82506;SHT30;72144;51.444;10.560;2024-01-30T05:55:45;2.69;82.73
82506;SHT30;72144;51.444;10.560;2024-01-30T05:58:11;2.69;82.65
82506;SHT30;72144;51.444;10.560;2024-01-30T06:00:36;2.64;82.66
82506;SHT30;72144;51.444;10.560;2024-01-30T06:03:02;2.66;82.69
82506;SHT30;72144;51.444;10.560;2024-01-30T06:05:27;2.66;82.75
82506;SHT30;72144;51.444;10.560;2024-01-30T06:07:52;2.66;82.74
82506;SHT30;72144;51.444;10.560;2024-01-30T06:10:18;2.64;82.77
82506;SHT30;72144;51.444;10.560;2024-01-30T06:12:44;2.66;82.86
82506;SHT30;72144;51.444;10.560;2024-01-30T06:15:09;2.64;82.87
82506;SHT30;72144;51.444;10.560;2024-01-30T06:17:35;2.64;82.88
82506;SHT30;72144;51.444;10.560;2024-01-30T06:20:00;2.63;82.95
82506;SHT30;72144;51.444;10.560;2024-01-30T06:22:26;2.63;83.04
82506;SHT30;72144;51.444;10.560;2024-01-30T06:24:51;2.63;83.05
82506;SHT30;72144;51.444;10.560;2024-01-30T06:27:16;2.59;83.09
82506;SHT30;72144;51.444;10.560;2024-01-30T06:29:43;2.60;83.14
82506;SHT30;72144;51.444;10.560;2024-01-30T06:32:08;2.62;83.14
82506;SHT30;72144;51.444;10.560;2024-01-30T06:34:34;2.60;83.14
82506;SHT30;72144;51.444;10.560;2024-01-30T06:36:59;2.59;83.16
82506;SHT30;72144;51.444;10.560;2024-01-30T06:39:26;2.57;83.17
82506;SHT30;72144;51.444;10.560;2024-01-30T06:41:51;2.57;83.12
82506;SHT30;72144;51.444;10.560;2024-01-30T06:44:16;2.59;83.10
82506;SHT30;72144;51.444;10.560;2024-01-30T06:46:42;2.56;83.16
82506;SHT30;72144;51.444;10.560;2024-01-30T06:49:07;2.56;83.06
82506;SHT30;72144;51.444;10.560;2024-01-30T06:51:33;2.54;83.07
82506;SHT30;72144;51.444;10.560;2024-01-30T06:53:58;2.56;83.02
82506;SHT30;72144;51.444;10.560;2024-01-30T06:56:24;2.54;83.03
82506;SHT30;72144;51.444;10.560;2024-01-30T06:58:52;2.56;83.06
82506;SHT30;72144;51.444;10.560;2024-01-30T07:01:17;2.53;83.03
82506;SHT30;72144;51.444;10.560;2024-01-30T07:03:43;2.53;83.05
82506;SHT30;72144;51.444;10.560;2024-01-30T07:06:09;2.52;82.99
82506;SHT30;72144;51.444;10.560;2024-01-30T07:08:36;2.50;82.90
82506;SHT30;72144;51.444;10.560;2024-01-30T07:11:04;2.49;82.89
82506;SHT30;72144;51.444;10.560;2024-01-30T07:13:30;2.50;83.09
82506;SHT30;72144;51.444;10.560;2024-01-30T07:15:55;2.52;83.17
82506;SHT30;72144;51.444;10.560;2024-01-30T07:18:20;2.49;83.22
82506;SHT30;72144;51.444;10.560;2024-01-30T07:20:46;2.52;83.27
82506;SHT30;72144;51.444;10.560;2024-01-30T07:23:13;2.49;83.21
82506;SHT30;72144;51.444;10.560;2024-01-30T07:25:41;2.48;83.26
82506;SHT30;72144;51.444;10.560;2024-01-30T07:28:09;2.49;83.22
82506;SHT30;72144;51.444;10.560;2024-01-30T07:30:36;2.48;83.18
82506;SHT30;72144;51.444;10.560;2024-01-30T07:33:01;2.50;83.36
82506;SHT30;72144;51.444;10.560;2024-01-30T07:35:27;2.48;83.50
82506;SHT30;72144;51.444;10.560;2024-01-30T07:37:52;2.48;83.56
82506;SHT30;72144;51.444;10.560;2024-01-30T07:40:17;2.50;83.49
82506;SHT30;72144;51.444;10.560;2024-01-30T07:42:43;2.49;83.48
82506;SHT30;72144;51.444;10.560;2024-01-30T07:45:09;2.52;83.42
82506;SHT30;72144;51.444;10.560;2024-01-30T07:47:34;2.52;83.44
82506;SHT30;72144;51.444;10.560;2024-01-30T07:49:59;2.50;83.45
82506;SHT30;72144;51.444;10.560;2024-01-30T07:52:25;2.49;83.57
82506;SHT30;72144;51.444;10.560;2024-01-30T07:54:51;2.50;83.55
82506;SHT30;72144;51.444;10.560;2024-01-30T07:57:16;2.49;83.50
82506;SHT30;72144;51.444;10.560;2024-01-30T07:59:43;2.52;83.44
82506;SHT30;72144;51.444;10.560;2024-01-30T08:02:14;2.50;83.53
82506;SHT30;72144;51.444;10.560;2024-01-30T08:04:40;2.53;83.44
82506;SHT30;72144;51.444;10.560;2024-01-30T08:07:05;2.56;83.49
82506;SHT30;72144;51.444;10.560;2024-01-30T08:09:30;2.57;83.46
82506;SHT30;72144;51.444;10.560;2024-01-30T08:11:56;2.59;83.46
82506;SHT30;72144;51.444;10.560;2024-01-30T08:14:21;2.60;83.52
82506;SHT30;72144;51.444;10.560;2024-01-30T08:16:47;2.60;83.54
82506;SHT30;72144;51.444;10.560;2024-01-30T08:19:12;2.62;83.69
82506;SHT30;72144;51.444;10.560;2024-01-30T08:21:37;2.63;83.69
82506;SHT30;72144;51.444;10.560;2024-01-30T08:24:04;2.66;83.74
82506;SHT30;72144;51.444;10.560;2024-01-30T08:26:30;2.69;83.87
82506;SHT30;72144;51.444;10.560;2024-01-30T08:28:55;2.72;84.03
82506;SHT30;72144;51.444;10.560;2024-01-30T08:31:20;2.76;84.20
82506;SHT30;72144;51.444;10.560;2024-01-30T08:33:46;2.81;84.32
82506;SHT30;72144;51.444;10.560;2024-01-30T08:36:11;2.84;84.33
82506;SHT30;72144;51.444;10.560;2024-01-30T08:38:36;2.87;84.40
82506;SHT30;72144;51.444;10.560;2024-01-30T08:41:02;2.91;84.41
82506;SHT30;72144;51.444;10.560;2024-01-30T08:43:28;2.94;84.48
82506;SHT30;72144;51.444;10.560;2024-01-30T08:45:53;2.97;84.62
82506;SHT30;72144;51.444;10.560;2024-01-30T08:48:18;3.03;84.67
82506;SHT30;72144;51.444;10.560;2024-01-30T08:50:44;3.04;84.79
82506;SHT30;72144;51.444;10.560;2024-01-30T08:53:09;3.11;84.82
82506;SHT30;72144;51.444;10.560;2024-01-30T08:55:35;3.12;84.90
82506;SHT30;72144;51.444;10.560;2024-01-30T08:58:00;3.16;84.91
82506;SHT30;72144;51.444;10.560;2024-01-30T09:00:26;3.21;85.02
82506;SHT30;72144;51.444;10.560;2024-01-30T09:02:51;3.23;84.95
82506;SHT30;72144;51.444;10.560;2024-01-30T09:05:16;3.28;84.92
82506;SHT30;72144;51.444;10.560;2024-01-30T09:07:42;3.32;84.93
82506;SHT30;72144;51.444;10.560;2024-01-30T09:10:07;3.38;84.92
82506;SHT30;72144;51.444;10.560;2024-01-30T09:12:32;3.39;84.91
82506;SHT30;72144;51.444;10.560;2024-01-30T09:14:58;3.46;84.90
82506;SHT30;72144;51.444;10.560;2024-01-30T09:17:23;3.50;84.84
82506;SHT30;72144;51.444;10.560;2024-01-30T09:19:48;3.55;84.84
82506;SHT30;72144;51.444;10.560;2024-01-30T09:22:14;3.60;84.80
82506;SHT30;72144;51.444;10.560;2024-01-30T09:24:40;3.64;84.78
82506;SHT30;72144;51.444;10.560;2024-01-30T09:27:05;3.69;84.74
82506;SHT30;72144;51.444;10.560;2024-01-30T09:29:31;3.74;84.75
82506;SHT30;72144;51.444;10.560;2024-01-30T09:31:59;3.81;84.73
82506;SHT30;72144;51.444;10.560;2024-01-30T09:34:24;3.84;84.68
82506;SHT30;72144;51.444;10.560;2024-01-30T09:36:50;3.90;84.64
82506;SHT30;72144;51.444;10.560;2024-01-30T09:39:15;3.97;84.62
82506;SHT30;72144;51.444;10.560;2024-01-30T09:41:58;4.04;84.64
82506;SHT30;72144;51.444;10.560;2024-01-30T09:44:25;4.06;84.55
82506;SHT30;72144;51.444;10.560;2024-01-30T09:46:53;4.12;84.55
82506;SHT30;72144;51.444;10.560;2024-01-30T09:49:20;4.18;84.51
82506;SHT30;72144;51.444;10.560;2024-01-30T09:51:45;4.25;84.50
82506;SHT30;72144;51.444;10.560;2024-01-30T09:54:14;4.32;84.49
82506;SHT30;72144;51.444;10.560;2024-01-30T09:56:40;4.40;84.44
82506;SHT30;72144;51.444;10.560;2024-01-30T09:59:05;4.45;84.39
82506;SHT30;72144;51.444;10.560;2024-01-30T10:01:31;4.50;84.34
82506;SHT30;72144;51.444;10.560;2024-01-30T10:03:56;4.57;84.30
82506;SHT30;72144;51.444;10.560;2024-01-30T10:06:24;4.66;84.31
82506;SHT30;72144;51.444;10.560;2024-01-30T10:08:49;4.71;84.24
82506;SHT30;72144;51.444;10.560;2024-01-30T10:11:15;4.77;84.23
82506;SHT30;72144;51.444;10.560;2024-01-30T10:13:40;4.85;84.21
82506;SHT30;72144;51.444;10.560;2024-01-30T10:16:06;4.91;84.10
82506;SHT30;72144;51.444;10.560;2024-01-30T10:18:32;4.98;84.06
82506;SHT30;72144;51.444;10.560;2024-01-30T10:20:58;5.04;84.14
82506;SHT30;72144;51.444;10.560;2024-01-30T10:23:24;5.11;84.06
82506;SHT30;72144;51.444;10.560;2024-01-30T10:25:51;5.16;84.02
82506;SHT30;72144;51.444;10.560;2024-01-30T10:28:17;5.20;84.01
82506;SHT30;72144;51.444;10.560;2024-01-30T10:30:43;5.29;84.01
82506;SHT30;72144;51.444;10.560;2024-01-30T10:33:08;5.35;83.99
82506;SHT30;72144;51.444;10.560;2024-01-30T10:35:33;5.42;83.93
82506;SHT30;72144;51.444;10.560;2024-01-30T10:37:59;5.48;83.92
82506;SHT30;72144;51.444;10.560;2024-01-30T10:40:28;5.51;83.97
82506;SHT30;72144;51.444;10.560;2024-01-30T10:42:55;5.58;83.99
82506;SHT30;72144;51.444;10.560;2024-01-30T10:45:22;5.64;83.98
82506;SHT30;72144;51.444;10.560;2024-01-30T10:47:53;5.71;83.92
82506;SHT30;72144;51.444;10.560;2024-01-30T10:50:19;5.79;83.90
82506;SHT30;72144;51.444;10.560;2024-01-30T10:52:45;5.85;83.90
82506;SHT30;72144;51.444;10.560;2024-01-30T10:55:10;5.89;83.99
82506;SHT30;72144;51.444;10.560;2024-01-30T10:57:37;5.95;83.98
82506;SHT30;72144;51.444;10.560;2024-01-30T11:00:05;6.01;83.98
82506;SHT30;72144;51.444;10.560;2024-01-30T11:02:37;6.08;84.04
82506;SHT30;72144;51.444;10.560;2024-01-30T11:05:04;6.13;84.02
82506;SHT30;72144;51.444;10.560;2024-01-30T11:07:30;6.16;83.98
82506;SHT30;72144;51.444;10.560;2024-01-30T11:12:24;6.30;83.99
82506;SHT30;72144;51.444;10.560;2024-01-30T11:15:14;6.37;84.03
82506;SHT30;72144;51.444;10.560;2024-01-30T11:20:22;6.47;83.92
82506;SHT30;72144;51.444;10.560;2024-01-30T11:22:54;6.55;83.91
82506;SHT30;72144;51.444;10.560;2024-01-30T11:25:21;6.61;83.89
82506;SHT30;72144;51.444;10.560;2024-01-30T11:27:50;6.67;83.94
82506;SHT30;72144;51.444;10.560;2024-01-30T11:33:04;6.77;83.76
82506;SHT30;72144;51.444;10.560;2024-01-30T11:35:43;6.84;83.82
82506;SHT30;72144;51.444;10.560;2024-01-30T11:38:09;6.89;83.80
82506;SHT30;72144;51.444;10.560;2024-01-30T11:40:37;6.96;83.80
82506;SHT30;72144;51.444;10.560;2024-01-30T11:43:05;7.03;83.81
82506;SHT30;72144;51.444;10.560;2024-01-30T11:45:31;7.05;83.84
82506;SHT30;72144;51.444;10.560;2024-01-30T11:47:57;7.13;83.84
82506;SHT30;72144;51.444;10.560;2024-01-30T11:50:23;7.19;83.76
82506;SHT30;72144;51.444;10.560;2024-01-30T11:52:50;7.23;83.73
82506;SHT30;72144;51.444;10.560;2024-01-30T11:55:15;7.31;83.67
82506;SHT30;72144;51.444;10.560;2024-01-30T11:57:41;7.35;83.56
82506;SHT30;72144;51.444;10.560;2024-01-30T12:00:16;7.40;83.53
82506;SHT30;72144;51.444;10.560;2024-01-30T12:02:44;7.44;83.52
82506;SHT30;72144;51.444;10.560;2024-01-30T12:05:09;7.54;83.65
82506;SHT30;72144;51.444;10.560;2024-01-30T12:07:36;7.57;83.59
82506;SHT30;72144;51.444;10.560;2024-01-30T12:10:02;7.61;83.59
82506;SHT30;72144;51.444;10.560;2024-01-30T12:12:28;7.69;83.67
82506;SHT30;72144;51.444;10.560;2024-01-30T12:14:55;7.74;83.49
82506;SHT30;72144;51.444;10.560;2024-01-30T12:17:28;7.76;83.37
82506;SHT30;72144;51.444;10.560;2024-01-30T12:20:23;7.85;83.69
82506;SHT30;72144;51.444;10.560;2024-01-30T12:22:49;7.87;83.54
82506;SHT30;72144;51.444;10.560;2024-01-30T12:25:19;7.96;83.57
82506;SHT30;72144;51.444;10.560;2024-01-30T12:27:47;7.97;83.45
82506;SHT30;72144;51.444;10.560;2024-01-30T12:30:15;8.02;83.42
82506;SHT30;72144;51.444;10.560;2024-01-30T12:32:42;8.06;83.36
82506;SHT30;72144;51.444;10.560;2024-01-30T12:35:13;8.12;83.27
82506;SHT30;72144;51.444;10.560;2024-01-30T12:37:39;8.16;83.23
82506;SHT30;72144;51.444;10.560;2024-01-30T12:40:05;8.20;83.21
82506;SHT30;72144;51.444;10.560;2024-01-30T12:42:31;8.23;83.28
82506;SHT30;72144;51.444;10.560;2024-01-30T12:44:57;8.27;83.36
82506;SHT30;72144;51.444;10.560;2024-01-30T12:47:24;8.30;83.29
82506;SHT30;72144;51.444;10.560;2024-01-30T12:49:49;8.36;83.23
82506;SHT30;72144;51.444;10.560;2024-01-30T12:52:18;8.36;83.22
82506;SHT30;72144;51.444;10.560;2024-01-30T12:54:44;8.41;83.26
82506;SHT30;72144;51.444;10.560;2024-01-30T12:57:09;8.44;83.35
82506;SHT30;72144;51.444;10.560;2024-01-30T12:59:35;8.45;83.38
82506;SHT30;72144;51.444;10.560;2024-01-30T13:02:01;8.47;83.38
82506;SHT30;72144;51.444;10.560;2024-01-30T13:04:27;8.51;83.38
82506;SHT30;72144;51.444;10.560;2024-01-30T13:06:53;8.54;83.29
82506;SHT30;72144;51.444;10.560;2024-01-30T13:09:19;8.54;83.32
82506;SHT30;72144;51.444;10.560;2024-01-30T13:11:44;8.61;83.21
82506;SHT30;72144;51.444;10.560;2024-01-30T13:14:10;8.61;83.18
82506;SHT30;72144;51.444;10.560;2024-01-30T13:16:35;8.65;83.12
82506;SHT30;72144;51.444;10.560;2024-01-30T13:19:01;8.68;83.11
82506;SHT30;72144;51.444;10.560;2024-01-30T13:21:27;8.68;83.12
82506;SHT30;72144;51.444;10.560;2024-01-30T13:23:53;8.71;83.09
82506;SHT30;72144;51.444;10.560;2024-01-30T13:26:22;8.75;83.11
82506;SHT30;72144;51.444;10.560;2024-01-30T13:28:48;8.76;83.07
82506;SHT30;72144;51.444;10.560;2024-01-30T13:31:16;8.79;83.06
82506;SHT30;72144;51.444;10.560;2024-01-30T13:33:42;8.80;83.15
82506;SHT30;72144;51.444;10.560;2024-01-30T13:36:08;8.83;83.11
82506;SHT30;72144;51.444;10.560;2024-01-30T13:38:34;8.83;83.08
82506;SHT30;72144;51.444;10.560;2024-01-30T13:40:59;8.87;83.15
82506;SHT30;72144;51.444;10.560;2024-01-30T13:43:25;8.90;83.19
82506;SHT30;72144;51.444;10.560;2024-01-30T13:45:51;8.90;83.05
82506;SHT30;72144;51.444;10.560;2024-01-30T13:48:19;8.93;82.89
82506;SHT30;72144;51.444;10.560;2024-01-30T13:50:44;8.93;82.94
82506;SHT30;72144;51.444;10.560;2024-01-30T13:53:11;8.93;82.92
82506;SHT30;72144;51.444;10.560;2024-01-30T13:55:36;8.97;82.96
82506;SHT30;72144;51.444;10.560;2024-01-30T13:58:02;8.94;82.97
82506;SHT30;72144;51.444;10.560;2024-01-30T14:00:27;8.97;83.00
82506;SHT30;72144;51.444;10.560;2024-01-30T14:02:53;8.96;82.98
82506;SHT30;72144;51.444;10.560;2024-01-30T14:05:22;8.96;83.05
82506;SHT30;72144;51.444;10.560;2024-01-30T14:07:48;8.99;83.08
82506;SHT30;72144;51.444;10.560;2024-01-30T14:10:15;8.97;83.26
82506;SHT30;72144;51.444;10.560;2024-01-30T14:12:42;9.00;83.19
82506;SHT30;72144;51.444;10.560;2024-01-30T14:15:08;9.00;83.15
82506;SHT30;72144;51.444;10.560;2024-01-30T14:17:35;9.02;83.17
82506;SHT30;72144;51.444;10.560;2024-01-30T14:20:01;9.02;83.11
82506;SHT30;72144;51.444;10.560;2024-01-30T14:22:28;8.99;83.04
82506;SHT30;72144;51.444;10.560;2024-01-30T14:24:53;9.03;83.04
82506;SHT30;72144;51.444;10.560;2024-01-30T14:27:18;9.04;83.07
82506;SHT30;72144;51.444;10.560;2024-01-30T14:29:44;9.04;83.11
82506;SHT30;72144;51.444;10.560;2024-01-30T14:32:09;9.06;83.19
82506;SHT30;72144;51.444;10.560;2024-01-30T14:34:34;9.04;83.28
82506;SHT30;72144;51.444;10.560;2024-01-30T14:37:00;9.04;83.22
82506;SHT30;72144;51.444;10.560;2024-01-30T14:39:26;9.07;83.23
82506;SHT30;72144;51.444;10.560;2024-01-30T14:41:51;9.04;83.27
82506;SHT30;72144;51.444;10.560;2024-01-30T14:44:16;9.04;83.21
82506;SHT30;72144;51.444;10.560;2024-01-30T14:46:42;9.04;83.17
82506;SHT30;72144;51.444;10.560;2024-01-30T14:49:07;9.07;83.16
82506;SHT30;72144;51.444;10.560;2024-01-30T14:51:35;9.06;83.20
82506;SHT30;72144;51.444;10.560;2024-01-30T14:54:00;9.07;83.16
82506;SHT30;72144;51.444;10.560;2024-01-30T14:56:26;9.04;83.06
82506;SHT30;72144;51.444;10.560;2024-01-30T14:58:52;9.06;83.05
82506;SHT30;72144;51.444;10.560;2024-01-30T15:01:17;9.06;83.13
82506;SHT30;72144;51.444;10.560;2024-01-30T15:03:44;9.02;83.27
82506;SHT30;72144;51.444;10.560;2024-01-30T15:06:12;9.06;83.27
82506;SHT30;72144;51.444;10.560;2024-01-30T15:08:38;9.04;83.28
82506;SHT30;72144;51.444;10.560;2024-01-30T15:11:03;9.03;83.36
82506;SHT30;72144;51.444;10.560;2024-01-30T15:13:29;9.02;83.26
82506;SHT30;72144;51.444;10.560;2024-01-30T15:15:55;9.02;83.22
82506;SHT30;72144;51.444;10.560;2024-01-30T15:18:20;9.00;83.14
82506;SHT30;72144;51.444;10.560;2024-01-30T15:20:45;8.97;83.08
82506;SHT30;72144;51.444;10.560;2024-01-30T15:23:11;8.97;82.99
82506;SHT30;72144;51.444;10.560;2024-01-30T15:25:36;8.96;82.93
82506;SHT30;72144;51.444;10.560;2024-01-30T15:28:01;8.94;83.00
82506;SHT30;72144;51.444;10.560;2024-01-30T15:30:27;8.93;82.98